createdAt,value
2023-03-30T00:00:22.073Z,98592.91
2023-03-30T00:02:55.145Z,98591.53
2023-03-30T00:05:24.812Z,98604.13
2023-03-30T00:07:55.691Z,98614.13
2023-03-30T00:10:25.638Z,98623.81
2023-03-30T00:12:55.050Z,98636.50
2023-03-30T00:15:26.161Z,98638.72
2023-03-30T00:17:56.451Z,98647.56
2023-03-30T00:20:26.612Z,98648.88
2023-03-30T00:22:56.632Z,98641.06
2023-03-30T00:25:26.957Z,98627.66
2023-03-30T00:27:57.255Z,98633.53
2023-03-30T00:30:27.348Z,98629.84
2023-03-30T00:32:58.497Z,98639.16
2023-03-30T00:35:31.848Z,98643.41
2023-03-30T00:38:05.204Z,98640.13
2023-03-30T00:40:36.626Z,98644.69
2023-03-30T00:43:12.985Z,98643.13
2023-03-30T00:45:43.378Z,98638.94
2023-03-30T00:48:31.896Z,98655.03
2023-03-30T00:51:10.667Z,98660.97
2023-03-30T00:53:57.405Z,98655.56
2023-03-30T00:56:32.270Z,98657.88
2023-03-30T00:59:04.018Z,98662.34
2023-03-30T01:01:39.717Z,98676.63
2023-03-30T01:04:12.214Z,98700.06
2023-03-30T01:06:44.604Z,98713.00
2023-03-30T01:09:18.842Z,98707.13
2023-03-30T01:11:49.551Z,98706.50
2023-03-30T01:14:20.393Z,98706.41
2023-03-30T01:17:02.692Z,98711.94
2023-03-30T01:19:45.036Z,98705.41
2023-03-30T01:22:24.449Z,98709.81
2023-03-30T01:25:50.760Z,98715.00
2023-03-30T01:28:46.101Z,98716.19
2023-03-30T01:31:19.120Z,98713.38
2023-03-30T01:34:07.278Z,98711.44
2023-03-30T01:36:47.065Z,98689.59
2023-03-30T01:39:46.083Z,98697.13
2023-03-30T01:42:29.789Z,98697.94
2023-03-30T01:45:02.864Z,98703.72
2023-03-30T01:47:42.551Z,98714.91
2023-03-30T01:50:21.988Z,98712.53
2023-03-30T01:52:58.244Z,98706.75
2023-03-30T01:55:51.857Z,98715.06
2023-03-30T01:58:35.036Z,98724.91
2023-03-30T02:01:08.491Z,98744.34
2023-03-30T02:03:40.713Z,98757.81
2023-03-30T02:06:28.315Z,98770.81
2023-03-30T02:09:02.100Z,98768.44
2023-03-30T02:11:33.786Z,98770.50
2023-03-30T02:14:07.071Z,98768.91
2023-03-30T02:16:49.761Z,98753.97
2023-03-30T02:19:21.428Z,98754.41
2023-03-30T02:21:51.830Z,98739.22
2023-03-30T02:24:27.677Z,98742.28
2023-03-30T02:26:58.249Z,98740.75
2023-03-30T02:29:28.463Z,98746.22
2023-03-30T02:32:00.707Z,98750.84
2023-03-30T02:34:53.407Z,98741.47
2023-03-30T02:37:48.822Z,98727.16
2023-03-30T02:40:57.272Z,98727.59
2023-03-30T02:43:47.110Z,98726.44
2023-03-30T02:46:42.132Z,98730.16
2023-03-30T02:49:47.131Z,98725.22
2023-03-30T02:52:35.259Z,98724.63
2023-03-30T02:55:24.604Z,98715.50
2023-03-30T02:58:28.015Z,98715.03
2023-03-30T03:01:25.473Z,98714.09
2023-03-30T03:04:14.256Z,98707.72
2023-03-30T03:07:22.243Z,98707.72
2023-03-30T03:09:53.638Z,98698.09
2023-03-30T03:12:25.447Z,98682.91
2023-03-30T03:14:59.516Z,98679.41
2023-03-30T03:17:35.723Z,98694.84
2023-03-30T03:20:14.346Z,98688.56
2023-03-30T03:22:45.742Z,98691.28
2023-03-30T03:25:16.891Z,98689.69
2023-03-30T03:27:58.865Z,98695.63
2023-03-30T03:30:34.017Z,98687.25
2023-03-30T03:33:12.752Z,98691.47
2023-03-30T03:35:47.312Z,98683.56
2023-03-30T03:38:17.581Z,98690.03
2023-03-30T03:40:58.517Z,98689.88
2023-03-30T03:43:29.667Z,98681.25
2023-03-30T03:46:00.536Z,98690.84
2023-03-30T03:48:30.927Z,98692.91
2023-03-30T03:51:01.436Z,98696.81
2023-03-30T03:53:38.508Z,98709.56
2023-03-30T03:56:13.063Z,98706.28
2023-03-30T03:58:43.627Z,98708.44
2023-03-30T04:01:15.826Z,98701.69
2023-03-30T04:03:47.166Z,98696.25
2023-03-30T04:06:20.931Z,98695.44
2023-03-30T04:08:51.284Z,98703.16
2023-03-30T04:11:41.741Z,98705.56
2023-03-30T04:14:30.181Z,98696.69
2023-03-30T04:17:19.880Z,98698.09
2023-03-30T04:20:20.805Z,98695.31
2023-03-30T04:23:23.330Z,98699.63
2023-03-30T04:26:14.828Z,98689.72
2023-03-30T04:28:57.674Z,98688.16
2023-03-30T04:31:48.190Z,98687.91
2023-03-30T04:34:23.342Z,98699.69
2023-03-30T04:37:19.950Z,98685.16
2023-03-30T04:40:11.315Z,98697.19
2023-03-30T04:43:05.342Z,98691.56
2023-03-30T04:46:03.978Z,98695.03
2023-03-30T04:48:52.241Z,98693.88
2023-03-30T04:51:42.067Z,98688.72
2023-03-30T04:54:16.376Z,98682.69
2023-03-30T04:57:07.897Z,98681.94
2023-03-30T04:59:47.348Z,98687.59
2023-03-30T05:02:36.368Z,98695.47
2023-03-30T05:05:33.069Z,98688.34
2023-03-30T05:08:30.777Z,98686.09
2023-03-30T05:11:15.117Z,98688.81
2023-03-30T05:13:59.156Z,98686.22
2023-03-30T05:17:00.026Z,98682.31
2023-03-30T05:19:48.367Z,98673.81
2023-03-30T05:22:33.397Z,98680.88
2023-03-30T05:25:50.028Z,98674.38
2023-03-30T05:28:40.652Z,98672.16
2023-03-30T05:31:23.543Z,98666.53
2023-03-30T05:34:21.009Z,98667.38
2023-03-30T05:37:16.544Z,98660.09
2023-03-30T05:39:59.243Z,98668.28
2023-03-30T05:42:46.508Z,98659.53
2023-03-30T05:45:31.174Z,98660.34
2023-03-30T05:48:21.468Z,98665.44
2023-03-30T05:51:08.444Z,98662.75
2023-03-30T05:53:54.565Z,98645.78
2023-03-30T05:56:48.865Z,98639.47
2023-03-30T05:59:27.144Z,98641.09
2023-03-30T06:02:27.039Z,98638.19
2023-03-30T06:05:05.465Z,98631.09
2023-03-30T06:07:35.931Z,98630.50
2023-03-30T06:10:07.488Z,98630.91
2023-03-30T06:12:37.973Z,98624.53
2023-03-30T06:15:10.873Z,98629.66
2023-03-30T06:17:48.849Z,98621.44
2023-03-30T06:20:22.926Z,98614.50
2023-03-30T06:22:54.350Z,98606.63
2023-03-30T06:25:26.885Z,98594.22
2023-03-30T06:27:58.821Z,98598.53
2023-03-30T06:30:30.811Z,98593.81
2023-03-30T06:33:05.447Z,98602.97
2023-03-30T06:35:54.007Z,98584.41
2023-03-30T06:38:28.594Z,98589.22
2023-03-30T06:40:59.576Z,98578.50
2023-03-30T06:43:31.654Z,98578.19
2023-03-30T06:46:10.571Z,98568.75
2023-03-30T06:48:44.917Z,98571.09
2023-03-30T06:51:43.982Z,98568.31
2023-03-30T06:54:15.485Z,98570.66
2023-03-30T06:56:54.098Z,98569.16
2023-03-30T06:59:26.045Z,98565.13
2023-03-30T07:02:19.650Z,98562.31
2023-03-30T07:05:02.397Z,98554.47
2023-03-30T07:07:55.146Z,98556.28
2023-03-30T07:10:26.036Z,98542.16
2023-03-30T07:12:58.406Z,98545.94
2023-03-30T07:15:28.900Z,98541.19
2023-03-30T07:17:59.719Z,98530.00
2023-03-30T07:20:30.711Z,98536.97
2023-03-30T07:23:22.977Z,98523.09
2023-03-30T07:25:55.490Z,98530.59
2023-03-30T07:28:36.103Z,98521.66
2023-03-30T07:31:12.624Z,98521.72
2023-03-30T07:33:44.650Z,98519.13
2023-03-30T07:36:18.941Z,98508.13
2023-03-30T07:38:49.419Z,98511.59
2023-03-30T07:41:20.974Z,98510.31
2023-03-30T07:43:55.557Z,98501.34
2023-03-30T07:46:25.865Z,98505.75
2023-03-30T07:48:57.872Z,98504.25
2023-03-30T07:51:30.925Z,98502.63
2023-03-30T07:54:08.491Z,98501.53
2023-03-30T07:56:59.429Z,98491.44
2023-03-30T07:59:29.794Z,98483.41
2023-03-30T08:02:15.632Z,98483.66
2023-03-30T08:04:54.155Z,98480.94
2023-03-30T08:07:35.831Z,98474.22
2023-03-30T08:10:14.660Z,98472.09
2023-03-30T08:12:45.388Z,98466.50
2023-03-30T08:15:15.832Z,98460.88
2023-03-30T08:17:45.788Z,98455.44
2023-03-30T08:20:16.470Z,98444.03
2023-03-30T08:22:46.973Z,98437.59
2023-03-30T08:25:17.251Z,98430.88
2023-03-30T08:27:47.790Z,98424.75
2023-03-30T08:30:18.909Z,98421.41
2023-03-30T08:32:49.513Z,98405.97
2023-03-30T08:35:20.119Z,98403.91
2023-03-30T08:37:50.577Z,98406.81
2023-03-30T08:40:20.911Z,98396.22
2023-03-30T08:43:20.650Z,98405.22
2023-03-30T08:45:51.887Z,98407.28
2023-03-30T08:48:28.838Z,98393.31
2023-03-30T08:51:16.677Z,98390.41
2023-03-30T08:53:47.267Z,98385.47
2023-03-30T08:56:29.950Z,98383.16
2023-03-30T08:59:04.006Z,98374.72
2023-03-30T09:01:48.447Z,98376.44
2023-03-30T09:04:39.836Z,98372.41
2023-03-30T09:07:49.159Z,98361.72
2023-03-30T09:10:21.237Z,98353.38
2023-03-30T09:12:59.658Z,98356.44
2023-03-30T09:15:47.385Z,98346.34
2023-03-30T09:18:30.956Z,98346.00
2023-03-30T09:21:04.636Z,98341.34
2023-03-30T09:23:37.271Z,98328.50
2023-03-30T09:26:35.744Z,98323.84
2023-03-30T09:29:30.168Z,98323.84
2023-03-30T09:32:23.832Z,98316.00
2023-03-30T09:35:06.538Z,98318.88
2023-03-30T09:37:37.977Z,98309.72
2023-03-30T09:40:46.543Z,98309.72
2023-03-30T09:43:18.562Z,98313.72
2023-03-30T09:45:49.446Z,98304.06
2023-03-30T09:48:19.730Z,98305.31
2023-03-30T09:50:51.194Z,98290.44
2023-03-30T09:53:27.973Z,98291.28
2023-03-30T09:56:11.911Z,98278.44
2023-03-30T09:58:42.721Z,98277.16
2023-03-30T10:01:19.826Z,98277.97
2023-03-30T10:04:11.879Z,98269.13
2023-03-30T10:06:50.519Z,98263.16
2023-03-30T10:09:25.465Z,98255.19
2023-03-30T10:11:58.012Z,98256.78
2023-03-30T10:14:37.051Z,98256.72
2023-03-30T10:17:08.279Z,98240.38
2023-03-30T10:19:47.747Z,98239.41
2023-03-30T10:22:23.510Z,98227.88
2023-03-30T10:24:58.551Z,98220.59
2023-03-30T10:27:35.422Z,98224.13
2023-03-30T10:30:19.794Z,98227.31
2023-03-30T10:32:51.432Z,98210.97
2023-03-30T10:35:26.297Z,98211.75
2023-03-30T10:38:00.168Z,98206.81
2023-03-30T10:40:34.970Z,98208.91
2023-03-30T10:43:12.780Z,98195.78
2023-03-30T10:45:58.412Z,98187.25
2023-03-30T10:48:50.569Z,98195.09
2023-03-30T10:51:33.543Z,98184.88
2023-03-30T10:54:19.091Z,98183.56
2023-03-30T10:57:18.128Z,98182.63
2023-03-30T10:59:51.017Z,98178.94
2023-03-30T11:02:43.688Z,98181.50
2023-03-30T11:05:18.837Z,98192.41
2023-03-30T11:08:17.481Z,98189.50
2023-03-30T11:10:54.315Z,98192.03
2023-03-30T11:13:33.067Z,98197.31
2023-03-30T11:16:17.945Z,98190.44
2023-03-30T11:19:07.672Z,98178.72
2023-03-30T11:22:07.487Z,98175.50
2023-03-30T11:24:38.094Z,98176.59
2023-03-30T11:27:20.479Z,98170.97
2023-03-30T11:30:10.422Z,98169.22
2023-03-30T11:32:50.306Z,98172.59
2023-03-30T11:36:04.044Z,98170.97
2023-03-30T11:39:18.423Z,98159.75
2023-03-30T11:42:09.640Z,98157.59
2023-03-30T11:44:41.492Z,98161.28
2023-03-30T11:47:13.953Z,98156.06
2023-03-30T11:49:44.626Z,98158.41
2023-03-30T11:52:23.085Z,98143.81
2023-03-30T11:55:06.798Z,98143.97
2023-03-30T11:57:44.604Z,98137.41
2023-03-30T12:00:37.926Z,98133.09
2023-03-30T12:03:23.202Z,98136.31
2023-03-30T12:06:07.544Z,98134.34
2023-03-30T12:09:04.379Z,98145.25
2023-03-30T12:11:41.607Z,98144.25
2023-03-30T12:14:47.320Z,98147.25
2023-03-30T12:17:20.040Z,98142.47
2023-03-30T12:20:01.283Z,98144.56
2023-03-30T12:22:36.852Z,98144.88
2023-03-30T12:25:21.216Z,98136.69
2023-03-30T12:28:05.121Z,98141.31
2023-03-30T12:30:54.797Z,98150.56
2023-03-30T12:33:59.129Z,98147.22
2023-03-30T12:36:41.993Z,98141.75
2023-03-30T12:39:27.655Z,98144.19
2023-03-30T12:42:05.586Z,98145.63
2023-03-30T12:44:38.429Z,98147.84
2023-03-30T12:47:21.463Z,98141.00
2023-03-30T12:50:09.506Z,98147.19
2023-03-30T12:52:55.178Z,98140.28
2023-03-30T12:55:59.043Z,98157.06
2023-03-30T12:58:50.143Z,98163.09
2023-03-30T13:01:46.777Z,98157.38
2023-03-30T13:04:23.258Z,98151.25
2023-03-30T13:07:04.519Z,98156.81
2023-03-30T13:09:37.208Z,98155.03
2023-03-30T13:12:09.166Z,98162.38
2023-03-30T13:15:07.966Z,98175.28
2023-03-30T13:17:55.984Z,98167.09
2023-03-30T13:20:47.537Z,98165.41
2023-03-30T13:23:17.702Z,98156.47
2023-03-30T13:25:53.238Z,98161.25
2023-03-30T13:28:57.470Z,98155.47
2023-03-30T13:31:51.586Z,98161.97
2023-03-30T13:34:51.688Z,98168.81
2023-03-30T13:37:29.452Z,98167.16
2023-03-30T13:40:12.065Z,98166.78
2023-03-30T13:42:48.343Z,98167.28
2023-03-30T13:45:32.469Z,98172.09
2023-03-30T13:48:32.372Z,98176.94
2023-03-30T13:51:05.942Z,98183.13
2023-03-30T13:53:46.248Z,98187.19
2023-03-30T13:56:17.609Z,98210.34
2023-03-30T13:59:01.005Z,98210.84
2023-03-30T14:01:32.118Z,98227.06
2023-03-30T14:04:05.758Z,98227.25
2023-03-30T14:06:44.926Z,98239.44
2023-03-30T14:09:20.761Z,98242.59
2023-03-30T14:11:52.978Z,98263.84
2023-03-30T14:14:31.901Z,98273.66
2023-03-30T14:17:04.098Z,98272.78
2023-03-30T14:19:40.094Z,98281.25
2023-03-30T14:22:21.230Z,98294.56
2023-03-30T14:25:04.757Z,98301.00
2023-03-30T14:27:40.058Z,98311.53
2023-03-30T14:30:23.458Z,98315.06
2023-03-30T14:33:14.269Z,98316.94
2023-03-30T14:35:52.036Z,98317.25
2023-03-30T14:38:44.418Z,98318.59
2023-03-30T14:41:28.483Z,98303.53
2023-03-30T14:44:06.867Z,98317.53
2023-03-30T14:46:41.935Z,98315.06
2023-03-30T14:49:26.241Z,98310.25
2023-03-30T14:52:12.310Z,98313.25
2023-03-30T14:54:51.552Z,98307.63
2023-03-30T14:57:39.322Z,98323.25
2023-03-30T15:00:22.484Z,98315.69
2023-03-30T15:03:03.078Z,98304.91
2023-03-30T15:05:42.586Z,98300.59
2023-03-30T15:08:24.184Z,98301.66
2023-03-30T15:10:58.268Z,98297.09
2023-03-30T15:13:39.409Z,98303.28
2023-03-30T15:16:28.260Z,98304.09
2023-03-30T15:19:08.075Z,98307.59
2023-03-30T15:21:40.385Z,98310.56
2023-03-30T15:24:31.088Z,98311.66
2023-03-30T15:27:06.699Z,98323.50
2023-03-30T15:29:37.923Z,98320.25
2023-03-30T15:32:19.017Z,98322.69
2023-03-30T15:35:05.111Z,98325.66
2023-03-30T15:37:37.421Z,98326.16
2023-03-30T15:40:30.182Z,98329.97
2023-03-30T15:43:27.112Z,98325.38
2023-03-30T15:46:00.096Z,98321.63
2023-03-30T15:48:40.775Z,98317.06
2023-03-30T15:51:39.154Z,98319.19
2023-03-30T15:54:17.498Z,98326.19
2023-03-30T15:57:03.512Z,98319.44
2023-03-30T15:59:41.265Z,98322.41
2023-03-30T16:02:18.902Z,98325.63
2023-03-30T16:04:53.640Z,98329.66
2023-03-30T16:07:26.415Z,98337.47
2023-03-30T16:09:57.520Z,98333.97
2023-03-30T16:12:33.098Z,98347.66
2023-03-30T16:15:04.968Z,98351.97
2023-03-30T16:17:36.356Z,98366.22
2023-03-30T16:20:19.581Z,98369.44
2023-03-30T16:22:50.739Z,98379.59
2023-03-30T16:25:34.007Z,98388.59
2023-03-30T16:28:10.850Z,98356.53
2023-03-30T16:30:42.966Z,98336.03
2023-03-30T16:33:14.777Z,98321.69
2023-03-30T16:35:45.282Z,98298.84
2023-03-30T16:38:19.756Z,98306.09
2023-03-30T16:41:01.691Z,98302.53
2023-03-30T16:43:33.337Z,98297.25
2023-03-30T16:46:06.321Z,98303.16
2023-03-30T16:48:37.748Z,98301.72
2023-03-30T16:51:09.429Z,98306.88
2023-03-30T16:53:40.367Z,98302.59
2023-03-30T16:56:21.578Z,98308.22
2023-03-30T16:58:53.414Z,98296.31
2023-03-30T17:01:23.697Z,98297.41
2023-03-30T17:03:55.315Z,98296.22
2023-03-30T17:06:26.230Z,98297.88
2023-03-30T17:08:57.223Z,98298.38
2023-03-30T17:11:28.454Z,98303.56
2023-03-30T17:13:59.755Z,98305.69
2023-03-30T17:16:33.209Z,98313.19
2023-03-30T17:19:06.721Z,98316.69
2023-03-30T17:21:37.941Z,98330.41
2023-03-30T17:24:12.481Z,98328.56
2023-03-30T17:26:44.394Z,98330.94
2023-03-30T17:29:14.759Z,98326.94
2023-03-30T17:31:49.034Z,98337.44
2023-03-30T17:34:19.589Z,98332.28
2023-03-30T17:36:49.582Z,98332.66
2023-03-30T17:39:19.479Z,98333.22
2023-03-30T17:41:49.676Z,98335.91
2023-03-30T17:44:20.609Z,98331.16
2023-03-30T17:46:53.830Z,98334.91
2023-03-30T17:49:25.435Z,98338.19
2023-03-30T17:51:57.353Z,98336.53
2023-03-30T17:54:29.167Z,98339.50
2023-03-30T17:56:59.644Z,98346.28
2023-03-30T17:59:30.988Z,98354.72
2023-03-30T18:02:01.790Z,98356.22
2023-03-30T18:04:32.830Z,98350.88
2023-03-30T18:07:05.653Z,98349.25
2023-03-30T18:09:35.929Z,98357.19
2023-03-30T18:12:07.531Z,98355.41
2023-03-30T18:14:38.426Z,98350.28
2023-03-30T18:17:08.600Z,98351.94
2023-03-30T18:19:39.249Z,98361.31
2023-03-30T18:22:10.023Z,98362.72
2023-03-30T18:24:40.654Z,98365.13
2023-03-30T18:27:10.498Z,98370.22
2023-03-30T18:29:40.507Z,98376.66
2023-03-30T18:32:13.207Z,98379.59
2023-03-30T18:34:45.220Z,98379.84
2023-03-30T18:37:16.246Z,98385.72
2023-03-30T18:39:48.870Z,98381.41
2023-03-30T18:42:19.028Z,98375.28
2023-03-30T18:44:51.384Z,98365.97
2023-03-30T18:47:23.015Z,98372.97
2023-03-30T18:49:53.993Z,98374.88
2023-03-30T18:52:26.550Z,98370.00
2023-03-30T18:54:57.368Z,98379.94
2023-03-30T18:57:29.097Z,98387.09
2023-03-30T19:00:00.771Z,98381.81
2023-03-30T19:02:31.887Z,98384.75
2023-03-30T19:05:03.400Z,98389.78
2023-03-30T19:07:34.331Z,98384.88
2023-03-30T19:10:05.364Z,98393.31
2023-03-30T19:12:36.406Z,98382.22
2023-03-30T19:15:07.745Z,98384.25
2023-03-30T19:17:38.331Z,98377.53
2023-03-30T19:20:09.280Z,98372.94
2023-03-30T19:22:39.507Z,98366.88
2023-03-30T19:25:12.632Z,98358.50
2023-03-30T19:27:55.521Z,98365.00
2023-03-30T19:30:35.309Z,98360.28
2023-03-30T19:33:09.651Z,98364.88
2023-03-30T19:35:45.117Z,98369.22
2023-03-30T19:38:17.140Z,98366.53
2023-03-30T19:40:47.600Z,98359.34
2023-03-30T19:43:18.110Z,98349.94
2023-03-30T19:45:52.639Z,98345.16
2023-03-30T19:48:22.732Z,98336.16
2023-03-30T19:50:52.271Z,98335.06
2023-03-30T19:53:21.984Z,98332.34
2023-03-30T19:55:51.803Z,98327.53
2023-03-30T19:58:21.425Z,98328.63
2023-03-30T20:00:52.162Z,98329.16
2023-03-30T20:03:22.206Z,98333.75
2023-03-30T20:05:52.453Z,98330.22
2023-03-30T20:08:24.778Z,98329.72
2023-03-30T20:10:56.621Z,98333.16
2023-03-30T20:13:28.694Z,98335.84
2023-03-30T20:15:58.311Z,98333.97
2023-03-30T20:18:28.038Z,98332.84
2023-03-30T20:20:58.650Z,98336.56
2023-03-30T20:23:29.749Z,98323.44
2023-03-30T20:26:04.146Z,98331.78
2023-03-30T20:28:34.161Z,98312.97
2023-03-30T20:31:04.349Z,98311.91
2023-03-30T20:33:37.468Z,98302.47
2023-03-30T20:36:08.877Z,98300.25
2023-03-30T20:38:40.806Z,98302.13
2023-03-30T20:41:12.969Z,98302.34
2023-03-30T20:43:56.421Z,98292.41
2023-03-30T20:46:27.413Z,98294.28
2023-03-30T20:48:56.862Z,98297.72
2023-03-30T20:51:26.194Z,98304.69
2023-03-30T20:53:55.746Z,98300.94
2023-03-30T20:56:25.090Z,98297.72
2023-03-30T20:58:54.324Z,98299.56
2023-03-30T21:01:29.413Z,98295.53
2023-03-30T21:04:00.779Z,98286.69
2023-03-30T21:06:32.629Z,98279.97
2023-03-30T21:09:05.463Z,98280.94
2023-03-30T21:11:39.967Z,98274.75
2023-03-30T21:14:12.081Z,98273.16
2023-03-30T21:16:43.270Z,98271.94
2023-03-30T21:19:13.559Z,98264.44
2023-03-30T21:21:43.066Z,98267.59
2023-03-30T21:24:13.500Z,98270.16
2023-03-30T21:26:43.400Z,98268.53
2023-03-30T21:29:12.451Z,98266.94
2023-03-30T21:31:41.905Z,98257.84
2023-03-30T21:34:11.988Z,98251.56
2023-03-30T21:36:42.122Z,98243.25
2023-03-30T21:39:11.388Z,98231.19
2023-03-30T21:41:40.929Z,98241.09
2023-03-30T21:44:10.992Z,98237.03
2023-03-30T21:46:41.380Z,98231.44
2023-03-30T21:49:12.045Z,98226.31
2023-03-30T21:51:41.614Z,98217.75
2023-03-30T21:54:11.123Z,98212.94
2023-03-30T21:56:40.368Z,98213.19
2023-03-30T21:59:10.913Z,98208.63
2023-03-30T22:01:40.916Z,98209.72
2023-03-30T22:04:10.268Z,98215.03
2023-03-30T22:06:39.820Z,98218.47
2023-03-30T22:09:08.914Z,98224.72
2023-03-30T22:11:38.953Z,98231.72
2023-03-30T22:14:08.081Z,98232.78
2023-03-30T22:16:38.430Z,98238.91
2023-03-30T22:19:07.742Z,98241.06
2023-03-30T22:21:37.922Z,98240.03
2023-03-30T22:24:08.823Z,98232.00
2023-03-30T22:26:38.192Z,98246.81
2023-03-30T22:29:07.805Z,98257.50
2023-03-30T22:31:37.732Z,98258.00
2023-03-30T22:34:08.344Z,98267.63
2023-03-30T22:36:38.498Z,98279.72
2023-03-30T22:39:07.869Z,98271.69
2023-03-30T22:41:37.377Z,98263.00
2023-03-30T22:44:07.417Z,98259.25
2023-03-30T22:46:37.281Z,98262.44
2023-03-30T22:49:07.040Z,98268.84
2023-03-30T22:51:39.369Z,98256.41
2023-03-30T22:54:08.941Z,98263.28
2023-03-30T22:56:38.370Z,98261.00
2023-03-30T22:59:07.976Z,98260.50
2023-03-30T23:01:40.410Z,98257.88
2023-03-30T23:04:10.829Z,98266.31
2023-03-30T23:06:41.046Z,98268.13
2023-03-30T23:09:14.505Z,98270.47
2023-03-30T23:11:46.957Z,98260.16
2023-03-30T23:14:16.666Z,98245.47
2023-03-30T23:16:47.555Z,98262.53
2023-03-30T23:19:17.159Z,98257.34
2023-03-30T23:21:47.766Z,98257.34
2023-03-30T23:24:17.909Z,98251.88
2023-03-30T23:26:47.679Z,98254.44
2023-03-30T23:29:17.942Z,98253.38
2023-03-30T23:31:47.837Z,98252.41
2023-03-30T23:34:17.681Z,98251.59
2023-03-30T23:36:51.177Z,98252.75
2023-03-30T23:39:21.104Z,98257.25
2023-03-30T23:41:51.388Z,98264.31
2023-03-30T23:44:20.792Z,98260.16
2023-03-30T23:46:50.602Z,98263.28
2023-03-30T23:49:20.568Z,98261.81
2023-03-30T23:51:49.776Z,98268.75
2023-03-30T23:54:19.374Z,98268.50
2023-03-30T23:56:50.124Z,98277.06
2023-03-30T23:59:19.690Z,98282.66
